Time;durP1;ratioP1;P1;durP2;ratioP2;P2;SDS_P1;SDS_P2;PMS_P1;PMS_P2;Temp;Humidity;BMP_temperature;BMP_pressure;BME280_temperature;BME280_humidity;BME280_pressure;Samples;Min_cycle;Max_cycle;Signal;HPM_P1;HPM_P2
2024/02/19 00:02:04;;;;;;;;;11.33;9.00;;;;;-147.14;100.00;58812.66;4998419;28;45495;-50
2024/02/19 00:04:29;;;;;;;;;11.00;8.67;;;;;-147.14;100.00;58812.66;4989106;28;65712;-49
2024/02/19 00:06:55;;;;;;;;;11.33;9.00;;;;;-147.14;100.00;58812.66;4997983;28;68740;-52
2024/02/19 00:09:20;;;;;;;;;11.33;8.33;;;;;-147.14;100.00;58812.66;4998613;28;45539;-50
2024/02/19 00:11:48;;;;;;;;;13.00;9.67;;;;;-147.14;100.00;58812.66;5001144;28;70992;-49
2024/02/19 00:14:14;;;;;;;;;7.33;7.33;;;;;-147.14;100.00;58812.66;5001111;28;45520;-50
2024/02/19 00:16:39;;;;;;;;;11.33;8.00;;;;;-147.14;100.00;58812.66;4985145;28;45438;-49
2024/02/19 00:19:07;;;;;;;;;12.00;9.33;;;;;-147.14;100.00;58812.66;5000348;28;73690;-52
2024/02/19 00:21:33;;;;;;;;;10.00;9.00;;;;;-147.14;100.00;58812.66;5000960;28;45319;-50
2024/02/19 00:23:58;;;;;;;;;10.00;8.00;;;;;-147.14;100.00;58812.66;4985456;28;67751;-50
2024/02/19 00:26:24;;;;;;;;;8.67;7.33;;;;;-147.14;100.00;58812.66;5000540;28;45373;-50
2024/02/19 00:28:49;;;;;;;;;13.00;10.33;;;;;-147.14;100.00;58812.66;4986671;28;46375;-50
2024/02/19 00:31:16;;;;;;;;;10.67;7.00;;;;;-147.14;100.00;58812.66;4985911;28;45378;-53
2024/02/19 00:33:41;;;;;;;;;14.00;10.00;;;;;-147.14;100.00;58812.66;5000474;28;45428;-50
2024/02/19 00:36:07;;;;;;;;;10.33;10.33;;;;;-147.14;100.00;58812.66;5002511;28;45327;-53
2024/02/19 00:38:32;;;;;;;;;13.33;10.33;;;;;-147.14;100.00;58812.66;4999622;28;45389;-47
2024/02/19 00:40:57;;;;;;;;;8.00;7.00;;;;;-147.14;100.00;58812.66;4994358;28;45313;-49
2024/02/19 00:43:23;;;;;;;;;10.67;10.00;;;;;-147.14;100.00;58812.66;4997726;28;67170;-52
2024/02/19 00:45:48;;;;;;;;;9.67;9.00;;;;;-147.14;100.00;58812.66;4996713;28;45234;-48
2024/02/19 00:48:14;;;;;;;;;12.33;8.67;;;;;-147.14;100.00;58812.66;4999613;28;74412;-53
2024/02/19 00:50:39;;;;;;;;;11.33;10.00;;;;;-147.14;100.00;58812.66;5000391;28;65247;-50
2024/02/19 00:53:04;;;;;;;;;8.67;8.67;;;;;-147.14;100.00;58812.66;4999723;28;66284;-52
2024/02/19 00:55:30;;;;;;;;;11.00;9.00;;;;;-147.14;100.00;58812.66;4999105;28;60257;-50
2024/02/19 00:57:55;;;;;;;;;13.33;9.67;;;;;-147.14;100.00;58812.66;5000567;28;46266;-50
2024/02/19 01:00:22;;;;;;;;;9.33;8.00;;;;;-147.14;100.00;58812.66;5001093;28;45366;-49
2024/02/19 01:02:48;;;;;;;;;12.33;8.67;;;;;-147.14;100.00;58812.66;5001771;28;45418;-52
2024/02/19 01:05:13;;;;;;;;;10.67;9.00;;;;;-147.14;100.00;58812.66;5001000;28;45244;-49
2024/02/19 01:07:39;;;;;;;;;9.00;6.00;;;;;-147.14;100.00;58812.66;4999448;28;72866;-49
2024/02/19 01:10:05;;;;;;;;;9.67;9.33;;;;;-147.14;100.00;58812.66;4986361;28;58648;-49
2024/02/19 01:12:30;;;;;;;;;7.33;6.00;;;;;-147.14;100.00;58812.66;5000933;28;45557;-49
2024/02/19 01:14:56;;;;;;;;;11.33;8.67;;;;;-147.14;100.00;58812.66;4999934;28;69448;-51
2024/02/19 01:17:21;;;;;;;;;11.00;8.67;;;;;-147.14;100.00;58812.66;4998493;28;46420;-50
2024/02/19 01:19:46;;;;;;;;;12.00;10.00;;;;;-147.14;100.00;58812.66;5000645;28;45366;-51
2024/02/19 01:22:12;;;;;;;;;10.67;9.33;;;;;-147.14;100.00;58812.66;4998338;28;52498;-49
2024/02/19 01:24:38;;;;;;;;;11.33;9.33;;;;;-147.14;100.00;58812.66;5000001;28;45365;-51
2024/02/19 01:27:03;;;;;;;;;12.33;9.00;;;;;-147.14;100.00;58812.66;5000271;28;45274;-49
2024/02/19 01:29:28;;;;;;;;;16.33;12.00;;;;;-147.14;100.00;58812.66;4999261;28;69655;-50
2024/02/19 01:31:54;;;;;;;;;13.00;9.00;;;;;-147.14;100.00;58812.66;4997422;28;68470;-53
2024/02/19 01:34:19;;;;;;;;;11.00;8.00;;;;;-147.14;100.00;58812.66;4983134;28;69442;-52
2024/02/19 01:36:47;;;;;;;;;9.00;8.67;;;;;-147.14;100.00;58812.66;5000383;28;45431;-49
2024/02/19 01:39:13;;;;;;;;;10.00;10.00;;;;;-147.14;100.00;58812.66;4980751;28;45532;-52
2024/02/19 01:41:38;;;;;;;;;11.00;7.33;;;;;-147.14;100.00;58812.66;5000089;28;45529;-51
2024/02/19 01:44:04;;;;;;;;;8.00;7.00;;;;;-147.14;100.00;58812.66;4999185;28;65972;-49
2024/02/19 01:46:31;;;;;;;;;11.33;10.00;;;;;-147.14;100.00;58812.66;5000507;28;46436;-49
2024/02/19 01:48:57;;;;;;;;;11.33;8.00;;;;;-147.14;100.00;58812.66;5000489;28;50956;-50
2024/02/19 01:51:23;;;;;;;;;9.00;6.33;;;;;-147.14;100.00;58812.66;4999953;28;45485;-52
2024/02/19 01:53:49;;;;;;;;;10.33;7.00;;;;;-147.14;100.00;58812.66;4982395;28;65836;-52
2024/02/19 01:56:14;;;;;;;;;7.33;6.67;;;;;-147.14;100.00;58812.66;4996518;28;46160;-49
2024/02/19 01:58:40;;;;;;;;;6.67;6.67;;;;;-147.14;100.00;58812.66;4984160;28;59536;-49
2024/02/19 02:01:06;;;;;;;;;8.33;7.00;;;;;-147.14;100.00;58812.66;4982592;28;65217;-53
2024/02/19 02:03:33;;;;;;;;;10.33;9.33;;;;;-147.14;100.00;58812.66;5000455;28;45536;-48
2024/02/19 02:05:59;;;;;;;;;9.00;7.33;;;;;-147.14;100.00;58812.66;4983944;28;45797;-49
2024/02/19 02:08:24;;;;;;;;;13.33;10.33;;;;;-147.14;100.00;58812.66;4998904;28;45326;-52
2024/02/19 02:10:50;;;;;;;;;9.67;7.00;;;;;-147.14;100.00;58812.66;4999861;28;45414;-53
2024/02/19 02:13:18;;;;;;;;;10.33;7.67;;;;;-147.14;100.00;58812.66;4998892;28;62711;-51
2024/02/19 02:15:43;;;;;;;;;12.00;9.00;;;;;-147.14;100.00;58812.66;4985264;28;47163;-52
2024/02/19 02:18:09;;;;;;;;;10.33;9.67;;;;;-147.14;100.00;58812.66;4999369;28;45547;-51
2024/02/19 02:20:34;;;;;;;;;11.00;8.00;;;;;-147.14;100.00;58812.66;4992632;28;58939;-49
2024/02/19 02:23:00;;;;;;;;;10.67;9.00;;;;;-147.14;100.00;58812.66;4986807;28;45273;-48
2024/02/19 02:25:25;;;;;;;;;8.33;7.33;;;;;-147.14;100.00;58812.66;4998629;28;46018;-50
2024/02/19 02:27:51;;;;;;;;;11.00;8.00;;;;;-147.14;100.00;58812.66;4997928;28;71447;-50
2024/02/19 02:30:16;;;;;;;;;11.00;8.67;;;;;-147.14;100.00;58812.66;4998693;28;61314;-49
2024/02/19 02:32:41;;;;;;;;;13.67;9.33;;;;;-147.14;100.00;58812.66;4998489;28;56258;-50
2024/02/19 02:35:07;;;;;;;;;11.67;8.33;;;;;-147.14;100.00;58812.66;4989597;28;46576;-48
2024/02/19 02:37:32;;;;;;;;;10.00;10.00;;;;;-147.14;100.00;58812.66;4999898;28;45388;-50
2024/02/19 02:39:58;;;;;;;;;10.00;9.00;;;;;-147.14;100.00;58812.66;4985642;28;45328;-50
2024/02/19 02:42:23;;;;;;;;;10.00;10.00;;;;;-147.14;100.00;58812.66;4997874;28;45356;-52
2024/02/19 02:44:48;;;;;;;;;10.00;9.33;;;;;-147.14;100.00;58812.66;4998562;28;71966;-50
2024/02/19 02:47:14;;;;;;;;;12.00;11.33;;;;;-147.14;100.00;58812.66;4990100;28;68095;-49
2024/02/19 02:49:39;;;;;;;;;10.00;9.67;;;;;-147.14;100.00;58812.66;4979149;28;66427;-50
2024/02/19 02:52:04;;;;;;;;;10.00;8.33;;;;;-147.14;100.00;58812.66;4998619;28;65769;-52
2024/02/19 02:54:30;;;;;;;;;12.00;9.33;;;;;-147.14;100.00;58812.66;4998304;28;68413;-48
2024/02/19 02:56:55;;;;;;;;;10.67;8.00;;;;;-147.14;100.00;58812.66;4999555;28;45398;-50
2024/02/19 02:59:21;;;;;;;;;12.00;9.00;;;;;-147.14;100.00;58812.66;4998591;28;45499;-51
2024/02/19 03:01:46;;;;;;;;;11.00;8.00;;;;;-147.14;100.00;58812.66;4998415;28;69340;-52
2024/02/19 03:04:11;;;;;;;;;12.67;10.00;;;;;-147.14;100.00;58812.66;4994273;28;70955;-51
2024/02/19 03:06:37;;;;;;;;;8.33;7.00;;;;;-147.14;100.00;58812.66;4998450;28;45351;-51
2024/02/19 03:09:05;;;;;;;;;11.00;8.00;;;;;-147.14;100.00;58812.66;4998070;28;45770;-50
2024/02/19 03:11:30;;;;;;;;;12.00;8.33;;;;;-147.14;100.00;58812.66;4999528;28;45245;-52
2024/02/19 03:13:56;;;;;;;;;10.33;7.67;;;;;-147.14;100.00;58812.66;4998098;28;45667;-49
2024/02/19 03:16:21;;;;;;;;;10.00;8.00;;;;;-147.14;100.00;58812.66;4998428;28;53870;-52
2024/02/19 03:18:47;;;;;;;;;11.33;9.00;;;;;-147.14;100.00;58812.66;4999338;28;45424;-52
2024/02/19 03:21:15;;;;;;;;;19.33;9.00;;;;;-147.14;100.00;58812.66;4998920;28;45518;-51
2024/02/19 03:23:48;;;;;;;;;8.33;8.00;;;;;-147.14;100.00;58812.66;4999972;28;45438;-53
2024/02/19 03:26:13;;;;;;;;;8.33;8.33;;;;;-147.14;100.00;58812.66;4998266;28;45387;-53
2024/02/19 03:28:39;;;;;;;;;8.67;7.00;;;;;-147.14;100.00;58812.66;4998846;28;45843;-49
2024/02/19 03:31:04;;;;;;;;;11.67;11.00;;;;;-147.14;100.00;58812.66;4997836;28;67498;-51
2024/02/19 03:33:29;;;;;;;;;9.00;9.00;;;;;-147.14;100.00;58812.66;4996045;28;75455;-52
2024/02/19 03:35:54;;;;;;;;;14.00;10.00;;;;;-147.14;100.00;58812.66;4972244;28;73300;-50
2024/02/19 03:38:22;;;;;;;;;12.33;7.67;;;;;-147.14;100.00;58812.66;4997608;28;68407;-50
2024/02/19 03:40:48;;;;;;;;;10.00;6.67;;;;;-147.14;100.00;58812.66;4999280;28;45245;-49
2024/02/19 03:43:14;;;;;;;;;10.33;8.00;;;;;-147.14;100.00;58812.66;4980500;28;45385;-53
2024/02/19 03:45:39;;;;;;;;;11.33;10.33;;;;;-147.14;100.00;58812.66;5001946;28;62077;-53
2024/02/19 03:48:05;;;;;;;;;13.33;13.33;;;;;-147.14;100.00;58812.66;5000828;28;68288;-52
2024/02/19 03:50:31;;;;;;;;;12.33;8.67;;;;;-147.14;100.00;58812.66;4973006;28;45344;-48
2024/02/19 03:52:57;;;;;;;;;14.33;10.33;;;;;-147.14;100.00;58812.66;5001290;28;45564;-50
2024/02/19 03:55:22;;;;;;;;;10.00;8.33;;;;;-147.14;100.00;58812.66;4999561;28;72947;-51
2024/02/19 03:57:47;;;;;;;;;13.33;10.00;;;;;-147.14;100.00;58812.66;5000572;28;67716;-52
2024/02/19 04:00:13;;;;;;;;;13.33;11.67;;;;;-147.14;100.00;58812.66;5001138;28;45352;-52
2024/02/19 04:02:40;;;;;;;;;14.67;10.33;;;;;-147.14;100.00;58812.66;5000711;28;45672;-52
2024/02/19 04:05:06;;;;;;;;;20.00;12.33;;;;;-147.14;100.00;58812.66;5000930;28;45507;-51
2024/02/19 04:07:31;;;;;;;;;13.00;10.33;;;;;-147.14;100.00;58812.66;5002246;28;45555;-51
2024/02/19 04:09:56;;;;;;;;;14.67;11.67;;;;;-147.14;100.00;58812.66;5002073;28;45333;-49
2024/02/19 04:12:22;;;;;;;;;14.33;13.33;;;;;-147.14;100.00;58812.66;4999260;28;66610;-48
2024/02/19 04:14:47;;;;;;;;;18.33;13.67;;;;;-147.14;100.00;58812.66;5001510;28;58008;-48
2024/02/19 04:17:12;;;;;;;;;17.00;15.00;;;;;-147.14;100.00;58812.66;5000705;28;57815;-51
2024/02/19 04:19:38;;;;;;;;;11.67;10.00;;;;;-147.14;100.00;58812.66;5001320;28;47780;-51
2024/02/19 04:22:03;;;;;;;;;14.00;12.33;;;;;-147.14;100.00;58812.66;4999953;28;74557;-49
2024/02/19 04:24:29;;;;;;;;;18.67;14.33;;;;;-147.14;100.00;58812.66;5002127;28;45242;-53
2024/02/19 04:26:54;;;;;;;;;16.00;15.00;;;;;-147.14;100.00;58812.66;4998776;28;45763;-51
2024/02/19 04:29:19;;;;;;;;;21.00;13.33;;;;;-147.14;100.00;58812.66;4998916;28;45238;-52
2024/02/19 04:31:45;;;;;;;;;21.67;14.67;;;;;-147.14;100.00;58812.66;5001459;28;45347;-49
2024/02/19 04:34:10;;;;;;;;;13.00;10.00;;;;;-147.14;100.00;58812.66;5000296;28;45370;-53
2024/02/19 04:36:36;;;;;;;;;13.67;12.67;;;;;-147.14;100.00;58812.66;5000926;28;69053;-52
2024/02/19 04:39:01;;;;;;;;;12.00;12.00;;;;;-147.14;100.00;58812.66;4997936;28;69238;-49
2024/02/19 04:41:27;;;;;;;;;17.33;13.00;;;;;-147.14;100.00;58812.66;5002164;28;46018;-51
2024/02/19 04:43:52;;;;;;;;;18.67;14.00;;;;;-147.14;100.00;58812.66;5000271;28;71576;-50
2024/02/19 04:46:18;;;;;;;;;14.33;11.33;;;;;-147.14;100.00;58812.66;5001256;28;48808;-52
2024/02/19 04:48:44;;;;;;;;;15.00;10.00;;;;;-147.14;100.00;58812.66;5001621;28;45248;-51
2024/02/19 04:51:09;;;;;;;;;18.00;13.67;;;;;-147.14;100.00;58812.66;5000971;28;46275;-50
2024/02/19 04:53:35;;;;;;;;;17.00;13.33;;;;;-147.14;100.00;58812.66;5001438;28;45322;-51
2024/02/19 04:56:00;;;;;;;;;17.00;13.00;;;;;-147.14;100.00;58812.66;5000740;28;45349;-51
2024/02/19 04:58:25;;;;;;;;;14.00;10.00;;;;;-147.14;100.00;58812.66;5001204;28;45630;-52
2024/02/19 05:00:51;;;;;;;;;14.00;12.33;;;;;-147.14;100.00;58812.66;4999549;28;74719;-52
2024/02/19 05:03:16;;;;;;;;;22.33;14.33;;;;;-147.14;100.00;58812.66;5000729;28;45663;-52
2024/02/19 05:05:41;;;;;;;;;15.00;13.33;;;;;-147.14;100.00;58812.66;5000308;28;59019;-49
2024/02/19 05:08:08;;;;;;;;;20.00;13.00;;;;;-147.14;100.00;58812.66;4999960;28;69630;-51
2024/02/19 05:10:33;;;;;;;;;14.67;14.00;;;;;-147.14;100.00;58812.66;4983933;28;45496;-50
2024/02/19 05:12:58;;;;;;;;;15.00;11.00;;;;;-147.14;100.00;58812.66;5000060;28;71642;-51
2024/02/19 05:15:23;;;;;;;;;15.00;13.33;;;;;-147.14;100.00;58812.66;4999372;28;64240;-49
2024/02/19 05:17:49;;;;;;;;;14.67;13.00;;;;;-147.14;100.00;58812.66;4999462;28;70571;-52
2024/02/19 05:20:14;;;;;;;;;15.67;13.67;;;;;-147.14;100.00;58812.66;4984688;28;57820;-48
2024/02/19 05:22:40;;;;;;;;;16.00;11.00;;;;;-147.14;100.00;58812.66;5000056;28;45380;-51
2024/02/19 05:25:06;;;;;;;;;12.00;12.00;;;;;-147.14;100.00;58812.66;5000419;28;45617;-51
2024/02/19 05:27:32;;;;;;;;;21.67;12.33;;;;;-147.14;100.00;58812.66;5000086;28;45289;-51
2024/02/19 05:29:58;;;;;;;;;17.33;15.33;;;;;-147.14;100.00;58812.66;4997859;28;66370;-50
2024/02/19 05:32:24;;;;;;;;;11.00;10.67;;;;;-147.14;100.00;58812.66;5000166;28;45684;-51
2024/02/19 05:34:49;;;;;;;;;13.00;11.00;;;;;-147.14;100.00;58812.66;5001180;28;45259;-50
2024/02/19 05:37:15;;;;;;;;;17.00;13.67;;;;;-147.14;100.00;58812.66;5000002;28;45559;-52
2024/02/19 05:39:40;;;;;;;;;16.00;16.00;;;;;-147.14;100.00;58812.66;4985461;28;45356;-50
2024/02/19 05:42:06;;;;;;;;;15.67;14.67;;;;;-147.14;100.00;58812.66;4979244;28;45385;-48
2024/02/19 05:44:32;;;;;;;;;20.00;16.33;;;;;-147.14;100.00;58812.66;5000325;28;45445;-51
2024/02/19 05:46:57;;;;;;;;;14.00;12.00;;;;;-147.14;100.00;58812.66;4982424;28;45306;-49
2024/02/19 05:49:22;;;;;;;;;15.67;13.33;;;;;-147.14;100.00;58812.66;4992751;28;60676;-51
2024/02/19 05:51:48;;;;;;;;;19.33;16.33;;;;;-147.14;100.00;58812.66;4986237;28;73265;-52
2024/02/19 05:54:13;;;;;;;;;16.33;13.67;;;;;-147.14;100.00;58812.66;4998506;28;68750;-52
2024/02/19 05:56:39;;;;;;;;;16.33;15.33;;;;;-147.14;100.00;58812.66;4999103;28;65323;-52
2024/02/19 05:59:05;;;;;;;;;20.33;14.33;;;;;-147.14;100.00;58812.66;5000067;28;46616;-52
2024/02/19 06:01:30;;;;;;;;;16.00;13.00;;;;;-147.14;100.00;58812.66;4998892;28;45253;-50
2024/02/19 06:03:56;;;;;;;;;12.67;11.00;;;;;-147.14;100.00;58812.66;4999247;28;69621;-52
2024/02/19 06:06:21;;;;;;;;;14.33;14.33;;;;;-147.14;100.00;58812.66;4999583;28;69694;-52
2024/02/19 06:08:46;;;;;;;;;11.00;9.00;;;;;-147.14;100.00;58812.66;4998721;28;73876;-52
2024/02/19 06:11:11;;;;;;;;;20.33;14.33;;;;;-147.14;100.00;58812.66;4997482;28;70378;-52
2024/02/19 06:13:37;;;;;;;;;14.00;13.00;;;;;-147.14;100.00;58812.66;4984104;28;67642;-53
2024/02/19 06:16:02;;;;;;;;;15.00;12.33;;;;;-147.14;100.00;58812.66;4997151;28;66885;-52
2024/02/19 06:18:28;;;;;;;;;15.33;11.33;;;;;-147.14;100.00;58812.66;4985021;28;46295;-52
2024/02/19 06:20:53;;;;;;;;;19.33;14.33;;;;;-147.14;100.00;58812.66;4997932;28;50409;-52
2024/02/19 06:23:18;;;;;;;;;19.67;15.00;;;;;-147.14;100.00;58812.66;4998730;28;62940;-47
2024/02/19 06:25:44;;;;;;;;;16.67;13.00;;;;;-147.14;100.00;58812.66;4997142;28;70272;-48
2024/02/19 06:28:09;;;;;;;;;13.67;13.67;;;;;-147.14;100.00;58812.66;4999230;28;45423;-52
2024/02/19 06:30:37;;;;;;;;;13.33;12.00;;;;;-147.14;100.00;58812.66;4970505;28;45448;-49
2024/02/19 06:33:04;;;;;;;;;15.00;12.67;;;;;-147.14;100.00;58812.66;4999343;28;45248;-49
2024/02/19 06:35:29;;;;;;;;;17.00;10.00;;;;;-147.14;100.00;58812.66;4999739;28;45450;-49
2024/02/19 06:37:55;;;;;;;;;17.67;13.67;;;;;-147.14;100.00;58812.66;5001327;28;45675;-51
2024/02/19 06:40:20;;;;;;;;;16.33;11.33;;;;;-147.14;100.00;58812.66;4997526;28;45619;-49
2024/02/19 06:42:46;;;;;;;;;14.00;12.33;;;;;-147.14;100.00;58812.66;4981166;28;70708;-52
2024/02/19 06:45:11;;;;;;;;;14.00;12.33;;;;;-147.14;100.00;58812.66;4995230;28;63881;-49
2024/02/19 06:47:36;;;;;;;;;19.33;15.67;;;;;-147.14;100.00;58812.66;4991516;28;49167;-48
2024/02/19 06:50:02;;;;;;;;;17.33;15.33;;;;;-147.14;100.00;58812.66;4998606;28;45377;-49
2024/02/19 06:52:28;;;;;;;;;14.33;14.33;;;;;-147.14;100.00;58812.66;4985183;28;45508;-52
2024/02/19 06:54:53;;;;;;;;;17.00;13.33;;;;;-147.14;100.00;58812.66;4999448;28;45496;-52
2024/02/19 06:57:19;;;;;;;;;20.33;16.67;;;;;-147.14;100.00;58812.66;4998415;28;45738;-48
2024/02/19 06:59:44;;;;;;;;;20.00;15.00;;;;;-147.14;100.00;58812.66;4983362;28;68523;-48
2024/02/19 07:02:09;;;;;;;;;20.00;14.67;;;;;-147.14;100.00;58812.66;4998431;28;45287;-47
2024/02/19 07:04:37;;;;;;;;;13.00;12.00;;;;;-147.14;100.00;58812.66;4981392;28;66622;-48
2024/02/19 07:07:08;;;;;;;;;16.67;13.33;;;;;-147.14;100.00;58812.66;4998845;28;45469;-51
2024/02/19 07:09:34;;;;;;;;;16.67;12.67;;;;;-147.14;100.00;58812.66;4998016;28;45624;-49
2024/02/19 07:11:59;;;;;;;;;17.67;15.00;;;;;-147.14;100.00;58812.66;4999473;28;45365;-48
2024/02/19 07:14:24;;;;;;;;;20.67;14.00;;;;;-147.14;100.00;58812.66;4996484;28;70582;-49
2024/02/19 07:16:50;;;;;;;;;20.33;14.33;;;;;-147.14;100.00;58812.66;4998920;28;46377;-49
2024/02/19 07:19:15;;;;;;;;;17.67;13.67;;;;;-147.14;100.00;58812.66;4996994;28;45432;-51
2024/02/19 07:21:41;;;;;;;;;21.00;17.00;;;;;-147.14;100.00;58812.66;4984077;28;45469;-51
2024/02/19 07:24:06;;;;;;;;;18.33;15.00;;;;;-147.14;100.00;58812.66;4997083;28;69566;-48
2024/02/19 07:26:31;;;;;;;;;16.33;16.33;;;;;-147.14;100.00;58812.66;4997815;28;46387;-48
2024/02/19 07:28:57;;;;;;;;;20.33;17.33;;;;;-147.14;100.00;58812.66;4993709;28;72040;-51
2024/02/19 07:31:22;;;;;;;;;16.00;14.00;;;;;-147.14;100.00;58812.66;4997040;28;69341;-49
2024/02/19 07:33:49;;;;;;;;;15.00;14.00;;;;;-147.14;100.00;58812.66;4997640;28;66708;-48
2024/02/19 07:36:15;;;;;;;;;16.00;12.67;;;;;-147.14;100.00;58812.66;4998301;28;47158;-48
2024/02/19 07:38:40;;;;;;;;;14.67;13.00;;;;;-147.14;100.00;58812.66;4996265;28;45429;-50
2024/02/19 07:41:14;;;;;;;;;23.00;18.00;;;;;-147.14;100.00;58812.66;4998743;28;45442;-49
2024/02/19 07:43:39;;;;;;;;;24.33;14.67;;;;;-147.14;100.00;58812.66;4997800;28;45419;-50
2024/02/19 07:46:05;;;;;;;;;16.00;14.00;;;;;-147.14;100.00;58812.66;4997788;28;66404;-52
2024/02/19 07:48:30;;;;;;;;;16.00;13.33;;;;;-147.14;100.00;58812.66;4995597;28;72553;-53
2024/02/19 07:50:55;;;;;;;;;14.33;13.00;;;;;-147.14;100.00;58812.66;4989496;28;45578;-53
2024/02/19 07:53:21;;;;;;;;;19.67;14.00;;;;;-147.14;100.00;58812.66;4996588;28;69674;-50
2024/02/19 07:55:46;;;;;;;;;14.00;11.33;;;;;-147.14;100.00;58812.66;4996741;28;45841;-50
2024/02/19 07:58:13;;;;;;;;;14.67;12.33;;;;;-147.14;100.00;58812.66;4991561;28;45847;-52
2024/02/19 08:00:39;;;;;;;;;15.67;10.33;;;;;-147.14;100.00;58812.66;5000795;28;45320;-51
2024/02/19 08:03:04;;;;;;;;;12.33;11.00;;;;;-147.14;100.00;58812.66;4997800;28;63059;-50
2024/02/19 08:05:29;;;;;;;;;12.00;10.67;;;;;-147.14;100.00;58812.66;5005456;28;45873;-51
2024/02/19 08:07:55;;;;;;;;;13.33;8.67;;;;;-147.14;100.00;58812.66;4994070;28;45380;-51
2024/02/19 08:10:20;;;;;;;;;7.33;6.33;;;;;-147.14;100.00;58812.66;4995550;28;45395;-51
2024/02/19 08:12:46;;;;;;;;;10.00;8.00;;;;;-147.14;100.00;58812.66;4992040;28;45482;-52
2024/02/19 08:15:11;;;;;;;;;7.33;7.33;;;;;-147.14;100.00;58812.66;4995149;28;66123;-52
2024/02/19 08:17:36;;;;;;;;;10.00;7.33;;;;;-147.14;100.00;58812.66;4997498;28;45600;-51
2024/02/19 08:20:03;;;;;;;;;8.00;7.00;;;;;-147.14;100.00;58812.66;4984795;28;46875;-53
2024/02/19 08:22:28;;;;;;;;;9.33;7.33;;;;;-147.14;100.00;58812.66;4981438;28;45476;-53
2024/02/19 08:24:54;;;;;;;;;6.00;6.00;;;;;-147.14;100.00;58812.66;4997074;28;46748;-51
2024/02/19 08:27:19;;;;;;;;;6.67;6.00;;;;;-147.14;100.00;58812.66;4993967;28;71190;-53
2024/02/19 08:29:44;;;;;;;;;9.00;7.00;;;;;-147.14;100.00;58812.66;4996930;28;45188;-51
2024/02/19 08:32:10;;;;;;;;;6.67;6.33;;;;;-147.14;100.00;58812.66;4990796;28;67238;-53
2024/02/19 08:34:35;;;;;;;;;7.33;7.00;;;;;-147.14;100.00;58812.66;4991991;28;63625;-49
2024/02/19 08:37:00;;;;;;;;;6.67;5.00;;;;;-147.14;100.00;58812.66;4988166;28;68720;-52
2024/02/19 08:39:26;;;;;;;;;5.00;5.00;;;;;-147.14;100.00;58812.66;4995995;28;45439;-53
2024/02/19 08:41:51;;;;;;;;;8.00;4.00;;;;;-147.14;100.00;58812.66;4998924;28;57018;-51
2024/02/19 08:44:16;;;;;;;;;7.33;4.67;;;;;-147.14;100.00;58812.66;4999291;28;56439;-49
2024/02/19 08:46:41;;;;;;;;;4.67;4.33;;;;;-147.14;100.00;58812.66;4995212;28;57365;-52
2024/02/19 08:49:09;;;;;;;;;5.00;5.00;;;;;-147.14;100.00;58812.66;4994541;28;66741;-51
2024/02/19 08:51:35;;;;;;;;;6.00;4.67;;;;;-147.14;100.00;58812.66;4980007;28;46784;-51
2024/02/19 08:54:00;;;;;;;;;6.33;6.00;;;;;-147.14;100.00;58812.66;4993774;28;64283;-52
2024/02/19 08:56:25;;;;;;;;;4.33;3.00;;;;;-147.14;100.00;58812.66;4990059;28;68757;-50
2024/02/19 08:58:51;;;;;;;;;5.00;4.00;;;;;-147.14;100.00;58812.66;4981051;28;45535;-49
2024/02/19 09:01:18;;;;;;;;;6.67;4.00;;;;;-147.14;100.00;58812.66;4994457;28;58823;-49
2024/02/19 09:03:43;;;;;;;;;6.00;4.00;;;;;-147.14;100.00;58812.66;4992340;28;45523;-52
2024/02/19 09:06:08;;;;;;;;;6.00;5.00;;;;;-147.14;100.00;58812.66;4996314;28;45540;-50
2024/02/19 09:08:34;;;;;;;;;6.00;4.33;;;;;-147.14;100.00;58812.66;4982702;28;64218;-51
2024/02/19 09:10:59;;;;;;;;;7.33;5.33;;;;;-147.14;100.00;58812.66;4999722;28;45498;-52
2024/02/19 09:13:25;;;;;;;;;7.33;5.00;;;;;-147.14;100.00;58812.66;5002970;28;69819;-52
2024/02/19 09:15:51;;;;;;;;;8.67;5.33;;;;;-147.14;100.00;58812.66;5013756;28;45463;-52
2024/02/19 09:18:16;;;;;;;;;6.67;4.00;;;;;-147.14;100.00;58812.66;5014157;28;45426;-52
2024/02/19 09:20:42;;;;;;;;;6.67;3.67;;;;;-147.14;100.00;58812.66;5013577;28;67979;-53
2024/02/19 09:23:07;;;;;;;;;5.33;5.00;;;;;-147.14;100.00;58812.66;5016975;28;45462;-51
2024/02/19 09:25:33;;;;;;;;;7.67;4.00;;;;;-147.14;100.00;58812.66;5001218;28;46933;-53
2024/02/19 09:27:58;;;;;;;;;4.00;4.00;;;;;-147.14;100.00;58812.66;5017014;28;45543;-51
2024/02/19 09:30:24;;;;;;;;;4.33;4.00;;;;;-147.14;100.00;58812.66;5017313;28;45690;-51
2024/02/19 09:32:49;;;;;;;;;5.33;5.00;;;;;-147.14;100.00;58812.66;5004823;28;46316;-51
2024/02/19 09:35:16;;;;;;;;;10.00;5.00;;;;;-147.14;100.00;58812.66;5015103;28;45403;-52
2024/02/19 09:37:41;;;;;;;;;5.00;4.00;;;;;-147.14;100.00;58812.66;5019910;28;45829;-51
2024/02/19 09:40:08;;;;;;;;;9.00;4.00;;;;;-147.14;100.00;58812.66;5003714;28;45506;-50
2024/02/19 09:42:34;;;;;;;;;2.00;2.00;;;;;-147.14;100.00;58812.66;5019070;28;47456;-52
2024/02/19 09:45:00;;;;;;;;;4.00;4.00;;;;;-147.14;100.00;58812.66;5020254;28;45221;-53
2024/02/19 09:47:26;;;;;;;;;6.00;5.00;;;;;-147.14;100.00;58812.66;5020172;28;45480;-53
2024/02/19 09:49:52;;;;;;;;;5.33;2.33;;;;;-147.14;100.00;58812.66;5018717;28;45544;-52
2024/02/19 09:52:25;;;;;;;;;4.33;2.67;;;;;-147.14;100.00;58812.66;5012371;28;46991;-51
2024/02/19 09:54:51;;;;;;;;;1.33;1.33;;;;;-147.14;100.00;58812.66;5020176;28;45308;-51
2024/02/19 09:57:19;;;;;;;;;4.00;2.67;;;;;-147.14;100.00;58812.66;5020194;28;45759;-52
2024/02/19 09:59:45;;;;;;;;;5.00;3.00;;;;;-147.14;100.00;58812.66;5002049;28;45454;-52
2024/02/19 10:02:18;;;;;;;;;2.00;2.00;;;;;-147.14;100.00;58812.66;5020126;28;45376;-51
2024/02/19 10:04:47;;;;;;;;;2.33;2.33;;;;;-147.14;100.00;58812.66;5011783;28;45579;-52
2024/02/19 10:07:17;;;;;;;;;3.67;3.67;;;;;-147.14;100.00;58812.66;5015986;28;45452;-51
2024/02/19 10:09:43;;;;;;;;;2.33;2.33;;;;;-147.14;100.00;58812.66;4997240;28;45559;-48
2024/02/19 10:12:08;;;;;;;;;4.33;2.67;;;;;-147.14;100.00;58812.66;5010570;28;45422;-51
2024/02/19 10:14:33;;;;;;;;;3.00;2.67;;;;;-147.14;100.00;58812.66;5016058;28;71031;-54
2024/02/19 10:17:00;;;;;;;;;5.00;2.00;;;;;-147.14;100.00;58812.66;5019168;28;69673;-52
2024/02/19 10:19:25;;;;;;;;;6.00;4.33;;;;;-147.14;100.00;58812.66;4996852;28;45538;-50
2024/02/19 10:21:52;;;;;;;;;6.67;2.00;;;;;-147.14;100.00;58812.66;5019059;28;45443;-50
2024/02/19 10:24:18;;;;;;;;;3.00;2.67;;;;;-147.14;100.00;58812.66;5013349;28;45525;-53
2024/02/19 10:26:44;;;;;;;;;3.67;3.00;;;;;-147.14;100.00;58812.66;4995519;28;45424;-52
2024/02/19 10:29:10;;;;;;;;;5.67;4.00;;;;;-147.14;100.00;58812.66;5018958;28;45437;-50
2024/02/19 10:31:35;;;;;;;;;4.33;4.00;;;;;-147.14;100.00;58812.66;5019300;28;45586;-53
2024/02/19 10:34:00;;;;;;;;;5.33;5.00;;;;;-147.14;100.00;58812.66;5019956;28;45341;-52
2024/02/19 10:36:26;;;;;;;;;8.00;4.67;;;;;-147.14;100.00;58812.66;5005976;28;45249;-52
2024/02/19 10:38:51;;;;;;;;;6.33;5.00;;;;;-147.14;100.00;58812.66;4990043;28;56700;-52
2024/02/19 10:41:20;;;;;;;;;6.67;6.00;;;;;-147.14;100.00;58812.66;4996832;28;73126;-52
2024/02/19 10:43:46;;;;;;;;;5.00;5.00;;;;;-147.14;100.00;58812.66;5001923;28;45431;-52
2024/02/19 10:46:13;;;;;;;;;7.67;6.00;;;;;-147.14;100.00;58812.66;5008185;28;67966;-52
2024/02/19 10:48:39;;;;;;;;;5.33;4.00;;;;;-147.14;100.00;58812.66;5002237;28;45727;-51
2024/02/19 10:51:05;;;;;;;;;5.00;5.00;;;;;-147.14;100.00;58812.66;4995470;28;73564;-50
2024/02/19 10:53:30;;;;;;;;;6.67;4.00;;;;;-147.14;100.00;58812.66;5002968;28;45335;-52